createdAt,value
2018-06-07T00:02:25.016Z,9.27
2018-06-07T00:04:53.772Z,9.50
2018-06-07T00:07:22.507Z,8.10
2018-06-07T00:09:51.164Z,8.70
2018-06-07T00:12:19.889Z,8.00
2018-06-07T00:14:48.532Z,7.93
2018-06-07T00:17:17.134Z,9.63
2018-06-07T00:19:45.444Z,7.57
2018-06-07T00:22:14.079Z,10.10
2018-06-07T00:24:42.754Z,7.97
2018-06-07T00:27:11.393Z,8.60
2018-06-07T00:29:40.077Z,7.93
2018-06-07T00:32:08.780Z,14.33
2018-06-07T00:34:37.382Z,8.80
2018-06-07T00:37:06.061Z,8.87
2018-06-07T00:39:34.677Z,8.40
2018-06-07T00:42:03.412Z,10.17
2018-06-07T00:44:32.061Z,7.73
2018-06-07T00:47:00.716Z,8.50
2018-06-07T00:49:29.480Z,9.40
2018-06-07T00:51:58.139Z,8.83
2018-06-07T00:54:26.813Z,10.53
2018-06-07T00:57:06.981Z,7.80
2018-06-07T00:59:35.664Z,11.40
2018-06-07T01:02:04.432Z,28.63
2018-06-07T01:04:33.116Z,29.40
2018-06-07T01:07:08.944Z,22.10
2018-06-07T01:09:37.525Z,21.17
2018-06-07T01:12:06.147Z,19.87
2018-06-07T01:14:34.792Z,20.40
2018-06-07T01:17:03.424Z,21.67
2018-06-07T01:19:32.121Z,22.17
2018-06-07T01:22:00.793Z,23.10
2018-06-07T01:24:29.456Z,24.73
2018-06-07T01:26:58.097Z,23.30
2018-06-07T01:29:37.852Z,18.97
2018-06-07T01:32:47.444Z,21.37
2018-06-07T01:35:16.150Z,19.37
2018-06-07T01:37:55.985Z,23.70
2018-06-07T01:40:24.273Z,29.53
2018-06-07T01:42:52.914Z,22.20
2018-06-07T01:45:21.625Z,22.13
2018-06-07T01:47:50.248Z,23.73
2018-06-07T01:50:18.917Z,21.43
2018-06-07T01:52:47.553Z,22.90
2018-06-07T01:55:16.242Z,22.70
2018-06-07T01:57:44.841Z,24.50
2018-06-07T02:00:13.454Z,24.97
2018-06-07T02:02:42.043Z,26.30
2018-06-07T02:05:10.670Z,31.70
2018-06-07T02:07:39.355Z,35.93
2018-06-07T02:10:07.980Z,37.43
2018-06-07T02:12:36.607Z,41.73
2018-06-07T02:15:06.095Z,39.90
2018-06-07T02:17:34.746Z,41.10
2018-06-07T02:20:03.422Z,46.30
2018-06-07T02:22:32.077Z,44.93
2018-06-07T02:25:00.677Z,41.90
2018-06-07T02:27:29.317Z,36.23
2018-06-07T02:29:57.992Z,40.80
2018-06-07T02:32:26.673Z,41.87
2018-06-07T02:34:55.386Z,44.60
2018-06-07T02:37:24.029Z,49.20
2018-06-07T02:39:52.618Z,45.23
2018-06-07T02:42:21.187Z,40.80
2018-06-07T02:44:49.901Z,46.30
2018-06-07T02:47:18.634Z,52.17
2018-06-07T02:49:47.261Z,46.60
2018-06-07T02:52:15.936Z,48.33
2018-06-07T02:54:44.637Z,42.60
2018-06-07T02:57:13.341Z,41.63
2018-06-07T02:59:42.027Z,43.73
2018-06-07T03:02:10.592Z,40.17
2018-06-07T03:04:39.220Z,42.80
2018-06-07T03:07:07.801Z,38.50
2018-06-07T03:09:36.420Z,43.70
2018-06-07T03:12:05.108Z,37.00
2018-06-07T03:14:33.755Z,40.37
2018-06-07T03:17:02.409Z,36.70
2018-06-07T03:19:31.154Z,37.37
2018-06-07T03:21:59.793Z,36.37
2018-06-07T03:24:28.427Z,37.37
2018-06-07T03:26:57.020Z,34.57
2018-06-07T03:32:23.397Z,35.90
2018-06-07T03:34:52.064Z,34.27
2018-06-07T03:37:20.689Z,37.90
2018-06-07T03:39:49.277Z,38.27
2018-06-07T03:42:17.921Z,36.57
2018-06-07T03:44:46.638Z,42.90
2018-06-07T03:47:15.250Z,36.03
2018-06-07T03:49:43.943Z,36.43
2018-06-07T03:52:12.568Z,36.80
2018-06-07T03:54:41.264Z,32.43
2018-06-07T03:57:09.893Z,34.70
2018-06-07T03:59:38.488Z,35.50
2018-06-07T04:02:07.092Z,38.83
2018-06-07T04:04:35.742Z,35.47
2018-06-07T04:07:04.364Z,37.70
2018-06-07T04:09:32.985Z,33.07
2018-06-07T04:12:01.658Z,35.67
2018-06-07T04:14:30.326Z,33.07
2018-06-07T04:16:59.075Z,29.40
2018-06-07T04:19:27.783Z,31.30
2018-06-07T04:21:56.538Z,31.13
2018-06-07T04:24:25.225Z,28.37
2018-06-07T04:30:08.728Z,27.53
2018-06-07T04:32:37.338Z,29.90
2018-06-07T04:35:06.005Z,30.83
2018-06-07T04:37:34.691Z,29.20
2018-06-07T04:40:03.485Z,26.77
2018-06-07T04:42:32.193Z,24.53
2018-06-07T04:45:00.869Z,27.37
2018-06-07T04:47:29.449Z,35.20
2018-06-07T04:49:58.132Z,27.60
2018-06-07T04:52:26.873Z,28.70
2018-06-07T04:54:55.574Z,27.43
2018-06-07T04:57:24.224Z,28.00
2018-06-07T04:59:52.940Z,27.17
2018-06-07T05:02:21.583Z,26.33
2018-06-07T05:04:50.413Z,25.87
2018-06-07T05:07:19.142Z,26.97
2018-06-07T05:09:47.879Z,26.10
2018-06-07T05:12:16.601Z,24.20
2018-06-07T05:14:45.289Z,25.70
2018-06-07T05:17:14.017Z,30.73
2018-06-07T05:19:42.718Z,28.40
2018-06-07T05:22:11.418Z,23.23
2018-06-07T05:24:40.137Z,21.30
2018-06-07T05:27:08.878Z,23.00
2018-06-07T05:29:37.531Z,21.00
2018-06-07T05:32:06.412Z,20.13
2018-06-07T05:34:35.026Z,20.03
2018-06-07T05:37:03.740Z,18.70
2018-06-07T05:39:32.483Z,22.43
2018-06-07T05:42:01.172Z,18.87
2018-06-07T05:44:30.038Z,18.33
2018-06-07T05:46:58.654Z,18.27
2018-06-07T05:49:27.350Z,16.73
2018-06-07T05:51:56.177Z,17.63
2018-06-07T05:54:24.938Z,18.40
2018-06-07T05:56:53.718Z,18.53
2018-06-07T05:59:22.436Z,17.43
2018-06-07T06:01:51.077Z,20.87
2018-06-07T06:04:19.718Z,18.90
2018-06-07T06:06:48.421Z,19.07
2018-06-07T06:09:17.217Z,21.87
2018-06-07T06:11:45.878Z,24.40
2018-06-07T06:14:14.497Z,21.30
2018-06-07T06:16:43.201Z,21.27
2018-06-07T06:19:11.842Z,23.33
2018-06-07T06:21:40.626Z,18.17
2018-06-07T06:24:09.326Z,20.27
2018-06-07T06:26:38.194Z,18.40
2018-06-07T06:29:06.909Z,18.93
2018-06-07T06:31:35.561Z,19.37
2018-06-07T06:34:04.315Z,20.27
2018-06-07T06:36:32.992Z,16.37
2018-06-07T06:39:01.761Z,16.37
2018-06-07T06:41:30.469Z,17.17
2018-06-07T06:43:59.340Z,17.17
2018-06-07T06:46:27.950Z,18.23
2018-06-07T06:48:56.648Z,15.13
2018-06-07T06:51:25.361Z,15.10
2018-06-07T06:53:54.036Z,14.17
2018-06-07T06:56:22.659Z,13.60
2018-06-07T06:58:51.344Z,13.20
2018-06-07T07:01:20.028Z,11.83
2018-06-07T07:03:48.799Z,13.70
2018-06-07T07:06:17.481Z,12.13
2018-06-07T07:08:46.104Z,11.03
2018-06-07T07:11:14.790Z,10.47
2018-06-07T07:13:43.428Z,9.40
2018-06-07T07:16:12.161Z,9.23
2018-06-07T07:18:40.825Z,7.77
2018-06-07T07:21:09.606Z,7.80
2018-06-07T07:23:38.246Z,7.73
2018-06-07T07:26:06.979Z,8.30
2018-06-07T07:28:35.627Z,7.27
2018-06-07T07:31:04.326Z,7.87
2018-06-07T07:33:33.099Z,7.23
2018-06-07T07:36:01.935Z,6.47
2018-06-07T07:38:30.736Z,6.20
2018-06-07T07:40:59.402Z,5.90
2018-06-07T07:43:28.040Z,7.03
2018-06-07T07:45:56.741Z,5.87
2018-06-07T07:48:25.472Z,6.30
2018-06-07T07:50:54.115Z,7.30
2018-06-07T07:53:22.783Z,6.43
2018-06-07T07:55:51.472Z,6.57
2018-06-07T07:58:20.190Z,6.20
2018-06-07T08:00:48.960Z,5.63
2018-06-07T08:03:17.614Z,8.03
2018-06-07T08:05:46.282Z,6.43
2018-06-07T08:08:15.028Z,5.03
2018-06-07T08:10:43.741Z,5.80
2018-06-07T08:13:12.495Z,5.47
2018-06-07T08:15:41.385Z,8.07
2018-06-07T08:18:10.027Z,5.10
2018-06-07T08:20:38.763Z,5.47
2018-06-07T08:23:07.485Z,5.60
2018-06-07T08:25:36.234Z,6.17
2018-06-07T08:28:05.226Z,5.37
2018-06-07T08:30:34.008Z,5.80
2018-06-07T08:33:02.650Z,5.53
2018-06-07T08:35:31.346Z,6.20
2018-06-07T08:38:00.138Z,7.53
2018-06-07T08:40:28.854Z,8.83
2018-06-07T08:42:57.493Z,5.97
2018-06-07T08:45:26.231Z,5.87
2018-06-07T08:47:54.916Z,6.07
2018-06-07T08:50:23.618Z,6.00
2018-06-07T08:52:52.358Z,5.53
2018-06-07T08:55:21.109Z,6.17
2018-06-07T08:57:49.823Z,5.83
2018-06-07T09:00:18.609Z,6.27
2018-06-07T09:02:47.258Z,7.30
2018-06-07T09:05:15.962Z,6.23
2018-06-07T09:07:44.634Z,6.33
2018-06-07T09:10:13.264Z,6.60
2018-06-07T09:12:41.964Z,6.43
2018-06-07T09:15:10.670Z,7.03
2018-06-07T09:17:39.443Z,6.30
2018-06-07T09:20:08.293Z,6.37
2018-06-07T09:22:36.933Z,5.80
2018-06-07T09:25:05.552Z,5.87
2018-06-07T09:27:34.169Z,5.70
2018-06-07T09:30:02.854Z,5.43
2018-06-07T09:32:31.560Z,5.10
2018-06-07T09:35:00.274Z,6.07
2018-06-07T09:37:28.939Z,5.73
2018-06-07T09:39:57.577Z,6.77
2018-06-07T09:42:26.236Z,6.07
2018-06-07T09:44:54.956Z,6.40
2018-06-07T09:47:23.708Z,6.80
2018-06-07T09:49:52.448Z,6.90
2018-06-07T09:52:21.148Z,7.20
2018-06-07T09:54:49.767Z,7.57
2018-06-07T09:57:18.443Z,6.80
2018-06-07T09:59:47.178Z,7.23
2018-06-07T10:02:15.834Z,8.60
2018-06-07T10:04:44.505Z,7.30
2018-06-07T10:07:13.418Z,8.60
2018-06-07T10:09:42.090Z,7.33
2018-06-07T10:12:10.888Z,8.67
2018-06-07T10:14:39.706Z,8.00
2018-06-07T10:17:08.341Z,8.90
2018-06-07T10:19:37.017Z,8.03
2018-06-07T10:22:05.668Z,7.97
2018-06-07T10:24:34.365Z,7.73
2018-06-07T10:27:02.991Z,7.63
2018-06-07T10:29:31.630Z,7.23
2018-06-07T10:32:00.370Z,7.37
2018-06-07T10:34:29.082Z,7.63
2018-06-07T10:36:57.734Z,8.27
2018-06-07T10:39:26.414Z,8.10
2018-06-07T10:41:55.155Z,9.80
2018-06-07T10:44:23.799Z,8.40
2018-06-07T10:46:52.452Z,8.33
2018-06-07T10:49:21.536Z,7.70
2018-06-07T10:51:50.176Z,7.97
2018-06-07T10:54:18.760Z,8.73
2018-06-07T10:56:47.439Z,8.77
2018-06-07T10:59:16.067Z,8.50
2018-06-07T11:01:44.781Z,9.43
2018-06-07T11:04:13.377Z,7.87
2018-06-07T11:06:42.109Z,9.40
2018-06-07T11:09:10.741Z,8.47
2018-06-07T11:11:39.481Z,8.30
2018-06-07T11:14:08.183Z,8.80
2018-06-07T11:16:36.858Z,8.37
2018-06-07T11:19:05.464Z,9.10
2018-06-07T11:21:34.157Z,9.63
2018-06-07T11:24:02.918Z,8.97
2018-06-07T11:26:31.579Z,8.43
2018-06-07T11:29:00.240Z,8.80
2018-06-07T11:31:28.917Z,8.20
2018-06-07T11:33:57.542Z,9.10
2018-06-07T11:36:26.323Z,8.77
2018-06-07T11:38:54.942Z,9.37
2018-06-07T11:41:23.721Z,9.73
2018-06-07T11:43:52.423Z,9.10
2018-06-07T11:46:21.122Z,8.40
2018-06-07T11:48:49.866Z,9.33
2018-06-07T11:51:18.563Z,7.77
2018-06-07T11:53:47.258Z,8.30
2018-06-07T11:56:16.206Z,8.70
2018-06-07T11:58:44.791Z,8.47
2018-06-07T12:01:13.469Z,8.50
2018-06-07T12:03:42.129Z,9.50
2018-06-07T12:06:10.903Z,9.00
2018-06-07T12:08:39.619Z,9.10
2018-06-07T12:11:08.274Z,8.13
2018-06-07T12:13:36.955Z,9.93
2018-06-07T12:16:05.597Z,8.70
2018-06-07T12:18:34.233Z,8.90
2018-06-07T12:21:02.882Z,7.90
2018-06-07T12:23:31.529Z,9.00
2018-06-07T12:26:00.179Z,8.37
2018-06-07T12:28:28.832Z,10.70
2018-06-07T12:30:57.449Z,7.60
2018-06-07T12:33:26.082Z,8.43
2018-06-07T12:35:54.371Z,8.67
2018-06-07T12:38:23.053Z,8.33
2018-06-07T12:40:51.792Z,7.47
2018-06-07T12:43:20.502Z,8.37
2018-06-07T12:45:49.159Z,7.97
2018-06-07T12:48:17.889Z,8.60
2018-06-07T12:50:46.496Z,8.40
2018-06-07T12:53:15.256Z,8.67
2018-06-07T12:55:43.958Z,8.50
2018-06-07T12:58:12.741Z,7.37
2018-06-07T13:00:41.519Z,7.63
2018-06-07T13:03:10.202Z,9.30
2018-06-07T13:05:38.481Z,8.60
2018-06-07T13:08:07.308Z,10.90
2018-06-07T13:10:35.961Z,8.53
2018-06-07T13:13:04.765Z,8.70
2018-06-07T13:15:33.400Z,8.10
2018-06-07T13:18:02.043Z,8.90
2018-06-07T13:20:30.771Z,8.90
2018-06-07T13:22:59.496Z,8.00
2018-06-07T13:25:27.800Z,8.30
2018-06-07T13:27:56.490Z,7.30
2018-06-07T13:30:25.091Z,6.83
2018-06-07T13:32:54.018Z,7.50
2018-06-07T13:35:22.729Z,8.47
2018-06-07T13:37:51.021Z,7.13
2018-06-07T13:40:19.737Z,5.80
2018-06-07T13:42:48.389Z,5.77
2018-06-07T13:45:17.016Z,5.60
2018-06-07T13:47:45.628Z,5.50
2018-06-07T13:50:14.362Z,5.90
2018-06-07T13:52:42.906Z,6.37
2018-06-07T13:55:11.577Z,5.90
2018-06-07T13:57:40.165Z,6.37
2018-06-07T14:00:08.500Z,6.80
2018-06-07T14:02:37.132Z,6.40
2018-06-07T14:05:05.833Z,8.70
2018-06-07T14:07:34.469Z,7.20
2018-06-07T14:10:03.051Z,7.67
2018-06-07T14:12:31.670Z,7.40
2018-06-07T14:15:00.387Z,7.83
2018-06-07T14:17:46.452Z,8.13
2018-06-07T14:20:15.045Z,8.00
2018-06-07T14:22:43.690Z,9.23
2018-06-07T14:25:12.377Z,7.40
2018-06-07T14:27:41.046Z,8.80
2018-06-07T14:30:09.674Z,8.37
2018-06-07T14:32:44.474Z,8.73
2018-06-07T14:35:16.939Z,9.07
2018-06-07T14:37:45.604Z,8.60
2018-06-07T14:40:14.318Z,9.40
2018-06-07T14:42:44.053Z,9.20
2018-06-07T14:45:12.760Z,8.30
2018-06-07T14:47:46.587Z,8.60
2018-06-07T14:50:16.458Z,8.40
2018-06-07T14:52:45.133Z,8.57
2018-06-07T14:55:13.758Z,8.73
2018-06-07T14:57:42.437Z,8.40
2018-06-07T15:00:16.816Z,8.80
2018-06-07T15:02:45.446Z,9.57
2018-06-07T15:05:14.143Z,9.40
2018-06-07T15:07:42.860Z,8.60
2018-06-07T15:10:11.531Z,9.60
2018-06-07T15:12:40.194Z,9.17
2018-06-07T15:15:12.932Z,9.20
2018-06-07T15:17:41.626Z,8.63
2018-06-07T15:20:10.361Z,8.97
2018-06-07T15:22:39.048Z,8.80
2018-06-07T15:25:07.666Z,9.07
2018-06-07T15:27:40.984Z,7.80
2018-06-07T15:30:09.628Z,8.07
2018-06-07T15:32:38.236Z,7.63
2018-06-07T15:35:06.849Z,8.00
2018-06-07T15:37:35.399Z,8.27
2018-06-07T15:40:04.057Z,8.00
2018-06-07T15:42:32.645Z,8.60
2018-06-07T15:45:01.262Z,8.73
2018-06-07T15:47:29.941Z,8.63
2018-06-07T15:49:58.471Z,8.80
2018-06-07T15:52:38.044Z,8.87
2018-06-07T15:55:06.857Z,9.77
2018-06-07T15:57:35.585Z,9.50
2018-06-07T16:00:04.511Z,9.50
2018-06-07T16:02:33.244Z,9.33
2018-06-07T16:05:02.875Z,10.17
2018-06-07T16:07:31.560Z,9.93
2018-06-07T16:10:00.220Z,9.93
2018-06-07T16:12:29.010Z,10.93
2018-06-07T16:14:57.655Z,11.23
2018-06-07T16:17:26.269Z,10.10
2018-06-07T16:19:54.977Z,10.57
2018-06-07T16:22:23.638Z,10.37
2018-06-07T16:24:52.216Z,9.60
2018-06-07T16:27:20.845Z,14.53
2018-06-07T16:29:49.582Z,10.27
2018-06-07T16:32:18.265Z,10.67
2018-06-07T16:34:46.939Z,10.87
2018-06-07T16:37:15.762Z,11.77
2018-06-07T16:39:44.092Z,12.10
2018-06-07T16:42:12.764Z,11.23
2018-06-07T16:44:41.420Z,11.43
2018-06-07T16:47:10.121Z,12.73
2018-06-07T16:49:38.804Z,11.53
2018-06-07T16:52:07.426Z,12.93
2018-06-07T16:54:36.014Z,12.40
2018-06-07T16:57:07.761Z,15.23
2018-06-07T16:59:36.398Z,15.67
2018-06-07T17:02:05.175Z,12.50
2018-06-07T17:04:33.857Z,10.63
2018-06-07T17:07:02.589Z,13.27
2018-06-07T17:09:31.300Z,11.60
2018-06-07T17:12:00.103Z,10.67
2018-06-07T17:14:28.777Z,11.30
2018-06-07T17:16:57.748Z,11.27
2018-06-07T17:19:28.467Z,16.23
2018-06-07T17:21:57.206Z,11.50
2018-06-07T17:24:26.587Z,17.83
2018-06-07T17:26:55.336Z,20.40
2018-06-07T17:29:26.199Z,19.53
2018-06-07T17:31:54.870Z,32.67
2018-06-07T17:34:23.534Z,21.00
2018-06-07T17:36:52.398Z,22.33
2018-06-07T17:39:21.140Z,32.80
2018-06-07T17:41:49.896Z,47.97
2018-06-07T17:44:18.605Z,33.47
2018-06-07T17:46:47.336Z,39.70
2018-06-07T17:49:15.961Z,35.80
2018-06-07T17:51:48.773Z,30.20
2018-06-07T17:54:17.554Z,49.37
2018-06-07T17:56:46.305Z,91.83
2018-06-07T17:59:14.955Z,85.90
2018-06-07T18:01:43.607Z,13.63
2018-06-07T18:04:12.193Z,13.87
2018-06-07T18:06:40.806Z,33.50
2018-06-07T18:09:09.869Z,15.60
2018-06-07T18:11:48.640Z,14.27
2018-06-07T18:14:17.413Z,20.40
2018-06-07T18:16:46.048Z,15.40
2018-06-07T18:19:14.889Z,17.13
2018-06-07T18:21:43.585Z,15.00
2018-06-07T18:24:16.092Z,14.77
2018-06-07T18:26:44.800Z,26.40
2018-06-07T18:29:13.399Z,23.43
2018-06-07T18:31:44.236Z,26.43
2018-06-07T18:34:12.971Z,34.37
2018-06-07T18:36:41.596Z,18.83
2018-06-07T18:39:10.392Z,12.20
2018-06-07T18:44:37.706Z,8.57
2018-06-07T18:47:06.678Z,10.00
2018-06-07T18:49:35.438Z,13.83
2018-06-07T18:52:04.236Z,17.50
2018-06-07T18:54:32.939Z,13.37
2018-06-07T18:57:01.611Z,19.23
2018-06-07T18:59:30.285Z,19.97
2018-06-07T19:01:58.955Z,25.43
2018-06-07T19:04:27.582Z,18.50
2018-06-07T19:06:56.360Z,24.20
2018-06-07T19:09:30.421Z,21.97
2018-06-07T19:11:59.182Z,28.33
2018-06-07T19:14:35.112Z,22.00
2018-06-07T19:17:22.069Z,18.77
2018-06-07T19:20:09.028Z,26.47
2018-06-07T19:22:37.677Z,22.60
2018-06-07T19:25:11.742Z,22.93
2018-06-07T19:27:40.398Z,21.83
2018-06-07T19:30:09.150Z,31.07
2018-06-07T19:32:43.010Z,26.63
2018-06-07T19:35:13.101Z,24.67
2018-06-07T19:37:41.743Z,23.07
2018-06-07T19:40:15.575Z,24.23
2018-06-07T19:42:44.132Z,16.17
2018-06-07T19:45:12.834Z,16.27
2018-06-07T19:47:41.481Z,18.80
2018-06-07T19:50:10.236Z,19.07
2018-06-07T19:52:39.036Z,15.20
2018-06-07T19:55:07.814Z,17.70
2018-06-07T19:57:36.485Z,19.10
2018-06-07T20:00:06.502Z,17.27
2018-06-07T20:02:35.093Z,15.17
2018-06-07T20:05:03.853Z,15.10
2018-06-07T20:07:32.526Z,15.10
2018-06-07T20:10:01.157Z,18.57
2018-06-07T20:12:29.813Z,21.03
2018-06-07T20:14:58.514Z,17.37
2018-06-07T20:17:30.540Z,18.83
2018-06-07T20:19:59.729Z,18.80
2018-06-07T20:22:28.490Z,12.93
2018-06-07T20:24:57.129Z,14.10
2018-06-07T20:27:25.817Z,13.90
2018-06-07T20:29:54.481Z,24.43
2018-06-07T20:32:23.224Z,23.97
2018-06-07T20:34:51.860Z,22.33
2018-06-07T20:37:20.152Z,22.00
2018-06-07T20:39:48.806Z,20.40
2018-06-07T20:42:17.475Z,24.30
2018-06-07T20:44:46.183Z,23.20
2018-06-07T20:47:15.256Z,21.70
2018-06-07T20:55:35.185Z,24.30
2018-06-07T20:58:03.860Z,25.63
2018-06-07T21:00:32.596Z,29.87
2018-06-07T21:03:01.269Z,16.67
2018-06-07T21:05:29.956Z,24.23
2018-06-07T21:07:58.661Z,14.77
2018-06-07T21:10:27.312Z,16.67
2018-06-07T21:12:55.979Z,13.10
2018-06-07T21:15:24.624Z,15.10
2018-06-07T21:17:53.295Z,15.20
2018-06-07T21:20:21.939Z,18.47
2018-06-07T21:22:50.598Z,15.87
2018-06-07T21:25:19.281Z,15.00
2018-06-07T21:27:47.929Z,15.17
2018-06-07T21:30:16.636Z,19.53
2018-06-07T21:32:45.323Z,15.00
2018-06-07T21:35:14.013Z,19.40
2018-06-07T21:37:42.644Z,16.70
2018-06-07T21:40:11.201Z,14.30
2018-06-07T21:42:39.915Z,16.23
2018-06-07T21:45:08.560Z,12.60
2018-06-07T21:47:37.214Z,21.47
2018-06-07T21:50:05.887Z,12.50
2018-06-07T21:52:34.547Z,14.80
2018-06-07T21:55:03.255Z,17.70
2018-06-07T21:57:31.504Z,17.40
2018-06-07T22:00:00.199Z,15.70
2018-06-07T22:02:28.861Z,17.30
2018-06-07T22:04:57.581Z,19.20
2018-06-07T22:07:25.867Z,14.13
2018-06-07T22:09:54.529Z,18.50
2018-06-07T22:12:23.169Z,21.07
2018-06-07T22:14:51.876Z,17.77
2018-06-07T22:17:20.549Z,14.20
2018-06-07T22:19:49.267Z,14.40
2018-06-07T22:22:17.950Z,21.10
2018-06-07T22:24:46.591Z,18.47
2018-06-07T22:27:15.217Z,16.10
2018-06-07T22:29:43.938Z,17.30
2018-06-07T22:32:12.615Z,16.50
2018-06-07T22:34:41.253Z,16.67
2018-06-07T22:37:09.939Z,15.00
2018-06-07T22:39:38.630Z,10.10
2018-06-07T22:42:07.313Z,16.73
2018-06-07T22:44:35.933Z,12.80
2018-06-07T22:47:04.576Z,16.03
2018-06-07T22:49:33.235Z,13.90
2018-06-07T22:52:01.933Z,19.30
2018-06-07T22:54:30.599Z,47.60
2018-06-07T22:56:59.291Z,92.57
2018-06-07T22:59:27.961Z,74.23
2018-06-07T23:01:56.613Z,69.43
2018-06-07T23:04:25.273Z,72.93
2018-06-07T23:06:53.910Z,41.03
2018-06-07T23:09:22.598Z,60.40
2018-06-07T23:11:51.237Z,66.67
2018-06-07T23:14:20.041Z,116.03
2018-06-07T23:16:48.755Z,145.87
2018-06-07T23:19:17.425Z,146.33
2018-06-07T23:21:46.133Z,61.13
2018-06-07T23:24:14.840Z,203.83
2018-06-07T23:26:43.513Z,40.43
2018-06-07T23:29:12.201Z,20.07
2018-06-07T23:31:40.804Z,25.80
2018-06-07T23:34:09.418Z,24.37
2018-06-07T23:36:38.112Z,29.23
2018-06-07T23:39:08.996Z,52.00
2018-06-07T23:41:37.920Z,43.57
2018-06-07T23:44:06.468Z,25.20
2018-06-07T23:46:35.097Z,20.23
2018-06-07T23:49:03.827Z,34.20
2018-06-07T23:51:32.473Z,31.23
2018-06-07T23:54:01.152Z,44.00
2018-06-07T23:56:29.789Z,40.93
2018-06-07T23:58:58.428Z,16.73
